Time;durP1;ratioP1;P1;durP2;ratioP2;P2;SDS_P1;SDS_P2;PMS_P1;PMS_P2;Temp;Humidity;BMP_temperature;BMP_pressure;BME280_temperature;BME280_humidity;BME280_pressure;Samples;Min_cycle;Max_cycle;Signal;HPM_P1;HPM_P2
2024/01/04 00:00:13;;;;;;;5.10;2.00;;;;;;;8.57;100.00;98756.44;5052336;28;20214;-77
2024/01/04 00:02:38;;;;;;;5.93;1.93;;;;;;;8.66;100.00;98753.63;5049735;28;20190;-79
2024/01/04 00:05:04;;;;;;;2.33;1.10;;;;;;;8.57;100.00;98750.41;5055800;28;20256;-78
2024/01/04 00:07:29;;;;;;;3.67;1.30;;;;;;;8.61;100.00;98754.63;5052872;28;20179;-77
2024/01/04 00:09:54;;;;;;;3.43;1.57;;;;;;;8.62;100.00;98754.56;5058217;28;20182;-77
2024/01/04 00:12:20;;;;;;;4.10;1.60;;;;;;;8.78;100.00;98755.03;5058208;28;20189;-78
2024/01/04 00:14:45;;;;;;;5.80;1.70;;;;;;;8.74;100.00;98748.25;5056670;28;20269;-78
2024/01/04 00:17:10;;;;;;;4.90;1.70;;;;;;;8.76;100.00;98761.13;5055675;28;20183;-78
2024/01/04 00:19:36;;;;;;;7.03;2.00;;;;;;;8.84;100.00;98754.03;5053368;28;20213;-78
2024/01/04 00:22:01;;;;;;;5.33;1.57;;;;;;;8.89;100.00;98759.06;5053560;28;20189;-76
2024/01/04 00:24:26;;;;;;;3.57;1.37;;;;;;;8.81;100.00;98762.69;5056900;28;20663;-77
2024/01/04 00:26:52;;;;;;;3.33;1.10;;;;;;;8.90;100.00;98763.34;5056604;28;20779;-78
2024/01/04 00:29:17;;;;;;;4.73;1.70;;;;;;;8.83;100.00;98780.72;5052723;28;20272;-77
2024/01/04 00:31:42;;;;;;;2.77;1.27;;;;;;;8.88;100.00;98789.19;5056540;28;20211;-78
2024/01/04 00:34:08;;;;;;;5.47;1.60;;;;;;;8.87;100.00;98784.03;5060266;28;20206;-78
2024/01/04 00:36:33;;;;;;;4.57;1.87;;;;;;;8.92;100.00;98792.53;5057552;28;20261;-79
2024/01/04 00:38:59;;;;;;;4.20;1.60;;;;;;;8.84;100.00;98783.25;5056201;28;20248;-78
2024/01/04 00:41:24;;;;;;;5.03;1.30;;;;;;;8.83;100.00;98788.44;5060609;28;20225;-77
2024/01/04 00:43:50;;;;;;;3.93;1.27;;;;;;;8.89;100.00;98798.63;5053270;28;20303;-78
2024/01/04 00:46:15;;;;;;;3.23;1.40;;;;;;;8.89;100.00;98797.75;5058345;28;20673;-78
2024/01/04 00:48:40;;;;;;;3.97;1.57;;;;;;;8.91;100.00;98811.47;5054771;28;20193;-77
2024/01/04 00:51:06;;;;;;;4.33;1.53;;;;;;;8.88;100.00;98812.41;5054458;28;20189;-78
2024/01/04 00:53:32;;;;;;;5.03;1.57;;;;;;;8.84;100.00;98821.97;5060977;28;20205;-78
2024/01/04 00:55:57;;;;;;;4.57;1.40;;;;;;;8.93;100.00;98809.69;5054040;28;20182;-78
2024/01/04 00:58:23;;;;;;;6.03;1.63;;;;;;;8.88;100.00;98816.69;5054129;28;20207;-78
2024/01/04 01:00:48;;;;;;;4.27;1.50;;;;;;;8.85;100.00;98823.63;5052311;28;20868;-78
2024/01/04 01:03:13;;;;;;;4.83;1.80;;;;;;;8.94;100.00;98832.03;5050912;28;20183;-78
2024/01/04 01:05:39;;;;;;;5.10;1.90;;;;;;;8.94;100.00;98834.63;5062699;28;20198;-78
2024/01/04 01:08:05;;;;;;;4.70;1.43;;;;;;;8.96;100.00;98832.84;5049279;28;20189;-77
2024/01/04 01:10:32;;;;;;;4.30;1.57;;;;;;;8.90;100.00;98833.84;5056035;28;20214;-78
2024/01/04 01:12:57;;;;;;;4.30;1.57;;;;;;;8.85;100.00;98835.69;5056094;28;20186;-78
2024/01/04 01:15:22;;;;;;;5.50;1.90;;;;;;;8.88;100.00;98827.00;5054921;28;20216;-78
2024/01/04 01:17:48;;;;;;;4.00;1.53;;;;;;;8.83;100.00;98822.84;5056058;28;20222;-78
2024/01/04 01:20:13;;;;;;;6.07;1.73;;;;;;;8.80;100.00;98837.53;5057600;28;20212;-76
2024/01/04 01:22:38;;;;;;;2.67;1.03;;;;;;;8.69;100.00;98823.19;5053195;28;20179;-77
2024/01/04 01:25:04;;;;;;;3.03;1.37;;;;;;;8.68;100.00;98821.47;5058558;28;20215;-77
2024/01/04 01:27:29;;;;;;;2.43;0.80;;;;;;;8.62;100.00;98837.09;5051880;28;20182;-79
2024/01/04 01:29:55;;;;;;;2.53;1.03;;;;;;;8.64;100.00;98842.22;5056562;28;20185;-78
2024/01/04 01:32:20;;;;;;;3.03;1.07;;;;;;;8.64;100.00;98847.38;5059143;28;20181;-78
2024/01/04 01:34:45;;;;;;;3.53;1.00;;;;;;;8.65;100.00;98851.66;5057614;28;20213;-77
2024/01/04 01:37:11;;;;;;;4.20;1.20;;;;;;;8.63;100.00;98868.91;5050572;28;20186;-78
2024/01/04 01:39:36;;;;;;;1.73;0.87;;;;;;;8.58;100.00;98860.41;5060441;28;20221;-77
2024/01/04 01:42:02;;;;;;;2.60;0.80;;;;;;;8.58;100.00;98871.59;5061202;28;20216;-78
2024/01/04 01:44:27;;;;;;;1.77;0.63;;;;;;;8.60;100.00;98884.44;5055655;28;20578;-79
2024/01/04 01:46:52;;;;;;;1.97;0.53;;;;;;;8.65;100.00;98887.78;5050033;28;20283;-77
2024/01/04 01:49:18;;;;;;;3.20;0.70;;;;;;;8.58;100.00;98897.38;5053567;28;20673;-78
2024/01/04 01:51:43;;;;;;;1.30;0.63;;;;;;;8.54;100.00;98896.63;5051992;28;20321;-77
2024/01/04 01:54:09;;;;;;;2.80;0.60;;;;;;;8.48;100.00;98890.72;5055551;28;20226;-77
2024/01/04 01:56:35;;;;;;;1.30;0.60;;;;;;;8.49;100.00;98905.31;5052271;28;20198;-78
2024/01/04 01:59:01;;;;;;;2.00;0.50;;;;;;;8.49;100.00;98905.31;5059128;28;20192;-79
2024/01/04 02:01:27;;;;;;;1.30;0.37;;;;;;;8.50;100.00;98907.88;5064265;28;20296;-79
2024/01/04 02:03:53;;;;;;;0.87;0.40;;;;;;;8.46;100.00;98901.06;5054073;28;20320;-78
2024/01/04 02:06:19;;;;;;;0.77;0.30;;;;;;;8.44;100.00;98912.28;5053089;28;20190;-78
2024/01/04 02:08:46;;;;;;;0.57;0.43;;;;;;;8.39;100.00;98897.75;5053079;28;20209;-78
2024/01/04 02:11:11;;;;;;;1.83;0.70;;;;;;;8.38;100.00;98911.53;5057529;28;20187;-78
2024/01/04 02:13:37;;;;;;;2.00;0.63;;;;;;;8.28;100.00;98920.34;5064340;28;20178;-78
2024/01/04 02:16:02;;;;;;;0.70;0.40;;;;;;;8.23;100.00;98917.88;5049812;28;20202;-77
2024/01/04 02:18:28;;;;;;;2.20;0.63;;;;;;;8.29;100.00;98923.78;5053723;28;20201;-78
2024/01/04 02:20:53;;;;;;;1.53;0.90;;;;;;;8.33;100.00;98933.97;5056265;28;20328;-78
2024/01/04 02:23:18;;;;;;;3.07;0.57;;;;;;;8.36;100.00;98927.94;5052513;28;20196;-77
2024/01/04 02:25:44;;;;;;;1.37;0.30;;;;;;;8.34;100.00;98929.69;5057240;28;20204;-78
2024/01/04 02:28:09;;;;;;;0.60;0.40;;;;;;;8.35;100.00;98939.13;5056158;28;20890;-78
2024/01/04 02:30:34;;;;;;;0.90;0.47;;;;;;;8.40;100.00;98937.25;5054518;28;20543;-79
2024/01/04 02:33:00;;;;;;;0.80;0.40;;;;;;;8.44;100.00;98931.16;5053674;28;20190;-77
2024/01/04 02:35:26;;;;;;;0.83;0.30;;;;;;;8.41;100.00;98946.69;5063511;28;20247;-78
2024/01/04 02:37:52;;;;;;;1.23;0.43;;;;;;;8.46;100.00;98951.78;5059385;28;20182;-77
2024/01/04 02:40:18;;;;;;;2.67;0.50;;;;;;;8.42;100.00;98943.25;5057358;28;20232;-78
2024/01/04 02:42:43;;;;;;;2.73;0.67;;;;;;;8.45;100.00;98947.50;5053174;28;20739;-78
2024/01/04 02:45:08;;;;;;;1.70;0.53;;;;;;;8.44;100.00;98943.22;5062406;28;20201;-77
2024/01/04 02:47:34;;;;;;;1.83;0.50;;;;;;;8.46;100.00;98947.47;5051818;28;20264;-77
2024/01/04 02:49:59;;;;;;;2.03;0.70;;;;;;;8.39;100.00;98941.59;5057622;28;21446;-78
2024/01/04 02:52:25;;;;;;;2.30;0.60;;;;;;;8.43;100.00;98947.53;5064265;28;20192;-78
2024/01/04 02:54:50;;;;;;;0.37;0.37;;;;;;;8.41;100.00;98959.59;5056601;28;20259;-78
2024/01/04 02:57:15;;;;;;;1.40;0.30;;;;;;;8.43;100.00;98955.25;5064782;28;20191;-77
2024/01/04 02:59:41;;;;;;;1.37;0.60;;;;;;;8.37;100.00;98963.13;5058974;28;20498;-78
2024/01/04 03:02:06;;;;;;;1.37;0.60;;;;;;;8.38;100.00;98962.25;5056514;28;20218;-77
2024/01/04 03:04:31;;;;;;;1.90;0.63;;;;;;;8.43;100.00;98962.16;5066974;28;20204;-78
2024/01/04 03:06:56;;;;;;;1.80;0.60;;;;;;;8.43;100.00;98965.56;5055303;28;20721;-77
2024/01/04 03:09:22;;;;;;;3.47;0.77;;;;;;;8.45;100.00;98956.06;5061456;28;20190;-78
2024/01/04 03:11:47;;;;;;;1.73;0.60;;;;;;;8.49;100.00;98959.47;5061365;28;20285;-76
2024/01/04 03:14:12;;;;;;;1.63;0.70;;;;;;;8.53;100.00;98951.66;5059964;28;20209;-77
2024/01/04 03:16:38;;;;;;;1.93;0.80;;;;;;;8.57;100.00;98961.88;5051355;28;20228;-78
2024/01/04 03:19:03;;;;;;;3.23;1.00;;;;;;;8.53;100.00;98955.94;5058972;28;20186;-78
2024/01/04 03:21:28;;;;;;;2.03;0.80;;;;;;;8.58;100.00;98961.00;5056857;28;21754;-79
2024/01/04 03:23:53;;;;;;;1.63;0.73;;;;;;;8.60;100.00;98960.09;5055500;28;20210;-78
2024/01/04 03:26:19;;;;;;;2.67;0.60;;;;;;;8.63;100.00;98961.75;5057297;28;20202;-77
2024/01/04 03:28:44;;;;;;;2.97;0.93;;;;;;;8.66;100.00;98965.09;5061239;28;20873;-77
2024/01/04 03:31:09;;;;;;;3.03;1.07;;;;;;;8.70;100.00;98952.97;5052210;28;20183;-78
2024/01/04 03:33:35;;;;;;;3.33;0.90;;;;;;;8.63;100.00;98957.41;5053678;28;20405;-78
2024/01/04 03:36:00;;;;;;;3.63;1.03;;;;;;;8.66;100.00;98959.94;5051053;28;20264;-77
2024/01/04 03:38:26;;;;;;;2.27;0.90;;;;;;;8.74;100.00;98959.75;5049939;28;20189;-77
2024/01/04 03:40:51;;;;;;;2.60;1.10;;;;;;;8.73;100.00;98967.53;5063615;28;20203;-78
2024/01/04 03:43:16;;;;;;;3.97;1.23;;;;;;;8.70;100.00;98978.75;5063030;28;20684;-77
2024/01/04 03:45:42;;;;;;;5.47;1.23;;;;;;;8.75;100.00;98976.09;5058649;28;20638;-78
2024/01/04 03:48:07;;;;;;;2.63;1.10;;;;;;;8.74;100.00;98982.16;5055171;28;21102;-77
2024/01/04 03:50:32;;;;;;;3.53;0.90;;;;;;;8.73;100.00;98977.88;5061457;28;20455;-78
2024/01/04 03:52:58;;;;;;;3.57;1.20;;;;;;;8.78;100.00;98973.44;5053131;28;20708;-77
2024/01/04 03:55:23;;;;;;;4.77;1.23;;;;;;;8.81;100.00;98970.78;5056075;28;20383;-77
2024/01/04 03:57:50;;;;;;;2.87;1.20;;;;;;;8.77;100.00;98976.91;5060902;28;20261;-77
2024/01/04 04:00:16;;;;;;;3.37;1.07;;;;;;;8.77;100.00;98980.34;5052854;28;20205;-79
2024/01/04 04:02:41;;;;;;;4.60;1.47;;;;;;;8.79;100.00;98976.00;5054902;28;20183;-77
2024/01/04 04:05:07;;;;;;;4.17;1.17;;;;;;;8.76;100.00;98988.94;5061072;28;20217;-78
2024/01/04 04:07:32;;;;;;;3.20;1.60;;;;;;;8.78;100.00;98994.94;5057471;28;20248;-78
2024/01/04 04:09:58;;;;;;;3.40;1.50;;;;;;;8.81;100.00;98992.28;5053683;28;20202;-78
2024/01/04 04:12:24;;;;;;;2.30;1.17;;;;;;;8.80;100.00;98993.16;5063977;28;20228;-78
2024/01/04 04:14:51;;;;;;;1.57;0.80;;;;;;;8.78;100.00;98988.91;5065835;28;20209;-78
2024/01/04 04:17:18;;;;;;;3.30;1.03;;;;;;;8.79;100.00;99001.78;5059170;28;20179;-78
2024/01/04 04:19:43;;;;;;;3.50;1.13;;;;;;;8.84;100.00;99015.44;5055020;28;20221;-78
2024/01/04 04:22:09;;;;;;;2.73;1.10;;;;;;;8.91;100.00;99015.28;5060824;28;20182;-78
2024/01/04 04:24:34;;;;;;;3.07;1.00;;;;;;;8.94;100.00;99012.66;5064846;28;20225;-78
2024/01/04 04:26:59;;;;;;;3.50;1.47;;;;;;;8.94;100.00;99007.47;5057988;28;20182;-78
2024/01/04 04:29:24;;;;;;;4.03;1.20;;;;;;;8.94;100.00;99016.06;5053706;28;22982;-77
2024/01/04 04:31:50;;;;;;;3.10;1.10;;;;;;;8.94;100.00;99016.06;5058002;28;20205;-77
2024/01/04 04:34:15;;;;;;;3.10;1.17;;;;;;;8.92;100.00;99023.00;5055269;28;20255;-78
2024/01/04 04:36:40;;;;;;;2.63;0.90;;;;;;;8.92;100.00;99032.47;5061638;28;20190;-76
2024/01/04 04:39:08;;;;;;;5.27;1.37;;;;;;;8.93;100.00;99029.84;5062604;28;20186;-78
2024/01/04 04:41:33;;;;;;;2.30;1.10;;;;;;;8.94;100.00;99046.19;5058394;28;20223;-77
2024/01/04 04:43:59;;;;;;;3.77;1.30;;;;;;;9.01;100.00;99032.25;5055373;28;20205;-77
2024/01/04 04:46:25;;;;;;;2.93;1.00;;;;;;;8.94;100.00;99035.88;5052938;28;20190;-77
2024/01/04 04:48:55;;;;;;;2.83;0.93;;;;;;;8.96;100.00;99026.38;5056683;28;20186;-78
2024/01/04 04:51:22;;;;;;;2.40;0.90;;;;;;;8.93;100.00;99045.31;5061019;28;20725;-76
2024/01/04 04:53:47;;;;;;;4.83;1.27;;;;;;;9.02;100.00;99043.44;5053348;28;20634;-78
2024/01/04 04:56:13;;;;;;;3.57;1.40;;;;;;;9.00;100.00;99051.19;5060968;28;20186;-77
2024/01/04 04:58:38;;;;;;;3.30;1.20;;;;;;;8.98;100.00;99061.56;5055198;28;20209;-78
2024/01/04 05:01:03;;;;;;;3.17;1.17;;;;;;;9.00;100.00;99057.22;5053521;28;20210;-78
2024/01/04 05:03:28;;;;;;;3.10;1.30;;;;;;;9.03;100.00;99064.03;5054684;28;20666;-79
2024/01/04 05:05:54;;;;;;;3.50;1.47;;;;;;;9.04;100.00;99068.31;5054226;28;20213;-77
2024/01/04 05:08:19;;;;;;;4.30;1.83;;;;;;;9.04;100.00;99065.72;5057880;28;20216;-78
2024/01/04 05:10:44;;;;;;;4.00;1.57;;;;;;;9.05;100.00;99075.19;5057882;28;20668;-77
2024/01/04 05:13:10;;;;;;;4.27;1.33;;;;;;;9.06;100.00;99076.88;5056653;28;20183;-78
2024/01/04 05:15:35;;;;;;;3.23;1.00;;;;;;;9.10;100.00;99070.78;5053331;28;20222;-77
2024/01/04 05:18:00;;;;;;;4.97;1.60;;;;;;;9.06;100.00;99087.19;5056306;28;20186;-76
2024/01/04 05:20:25;;;;;;;6.27;1.60;;;;;;;9.07;100.00;99085.47;5058673;28;20692;-77
2024/01/04 05:22:51;;;;;;;3.13;1.27;;;;;;;9.08;100.00;99097.47;5060818;28;20559;-77
2024/01/04 05:25:16;;;;;;;3.63;1.20;;;;;;;9.03;100.00;99099.31;5057881;28;20232;-78
2024/01/04 05:27:41;;;;;;;3.27;1.23;;;;;;;9.04;100.00;99101.88;5057985;28;20189;-78
2024/01/04 05:30:08;;;;;;;4.80;1.40;;;;;;;9.07;100.00;99106.97;5052340;28;20210;-78
2024/01/04 05:32:34;;;;;;;4.07;1.40;;;;;;;9.13;100.00;99118.88;5051589;28;20197;-75
2024/01/04 05:34:59;;;;;;;3.53;1.27;;;;;;;9.12;100.00;99112.88;5058487;28;20203;-78
2024/01/04 05:37:24;;;;;;;4.70;1.60;;;;;;;9.10;100.00;99118.94;5055985;28;20265;-78
2024/01/04 05:39:50;;;;;;;4.00;1.33;;;;;;;9.11;100.00;99123.22;5056104;28;20816;-79
2024/01/04 05:42:15;;;;;;;4.73;1.30;;;;;;;9.10;100.00;99121.53;5055225;28;20190;-77
2024/01/04 05:44:40;;;;;;;3.27;1.60;;;;;;;9.07;100.00;99130.19;5059516;28;20230;-78
2024/01/04 05:47:07;;;;;;;3.90;1.00;;;;;;;9.04;100.00;99126.84;5059293;28;20650;-78
2024/01/04 05:49:32;;;;;;;4.20;1.23;;;;;;;9.04;100.00;99132.84;5056606;28;20606;-78
2024/01/04 05:51:57;;;;;;;1.57;0.77;;;;;;;8.99;100.00;99140.69;5054720;28;20232;-77
2024/01/04 05:54:22;;;;;;;2.83;1.03;;;;;;;8.98;100.00;99144.13;5050096;28;20263;-76
2024/01/04 05:56:48;;;;;;;2.77;1.20;;;;;;;9.03;100.00;99141.44;5059815;28;20694;-78
2024/01/04 05:59:14;;;;;;;2.70;1.13;;;;;;;9.02;100.00;99160.41;5057632;28;20245;-77
2024/01/04 06:01:39;;;;;;;4.30;1.17;;;;;;;8.99;100.00;99157.91;5054833;28;20229;-79
2024/01/04 06:04:05;;;;;;;2.93;1.20;;;;;;;9.00;100.00;99162.16;5051206;28;20225;-78
2024/01/04 06:06:30;;;;;;;1.13;0.70;;;;;;;9.00;100.00;99170.75;5056680;28;20187;-77
2024/01/04 06:08:56;;;;;;;5.60;1.17;;;;;;;8.99;100.00;99173.38;5055258;28;20198;-78
2024/01/04 06:11:21;;;;;;;2.83;1.20;;;;;;;8.95;100.00;99182.06;5052170;28;20186;-77
2024/01/04 06:13:46;;;;;;;2.57;1.20;;;;;;;8.99;100.00;99175.97;5053359;28;20253;-78
2024/01/04 06:16:12;;;;;;;3.97;1.30;;;;;;;8.94;100.00;99188.09;5050347;28;20200;-77
2024/01/04 06:18:37;;;;;;;4.23;1.00;;;;;;;8.94;100.00;99194.09;5054445;28;20200;-78
2024/01/04 06:21:05;;;;;;;3.23;1.20;;;;;;;8.95;100.00;99197.53;5053112;28;20220;-77
2024/01/04 06:23:31;;;;;;;2.90;0.93;;;;;;;8.92;100.00;99198.47;5057221;28;20187;-78
2024/01/04 06:25:56;;;;;;;3.60;1.10;;;;;;;8.96;100.00;99207.81;5070212;28;20697;-78
2024/01/04 06:28:22;;;;;;;3.50;1.30;;;;;;;9.02;100.00;99217.19;5052121;28;20193;-78
2024/01/04 06:30:48;;;;;;;3.47;1.50;;;;;;;8.96;100.00;99222.47;5060449;28;20207;-76
2024/01/04 06:33:14;;;;;;;2.77;1.50;;;;;;;8.95;100.00;99226.78;5057267;28;20276;-78
2024/01/04 06:35:39;;;;;;;3.37;1.20;;;;;;;9.03;100.00;99230.94;5058898;28;20294;-77
2024/01/04 06:38:08;;;;;;;5.33;1.20;;;;;;;8.99;100.00;99237.91;5062190;28;20190;-78
2024/01/04 06:40:39;;;;;;;3.67;1.33;;;;;;;8.95;100.00;99234.50;5055224;28;20217;-78
2024/01/04 06:43:08;;;;;;;4.97;1.50;;;;;;;8.98;100.00;99241.38;5056213;28;20178;-79
2024/01/04 06:45:36;;;;;;;3.97;1.30;;;;;;;9.04;100.00;99250.72;5055209;28;20238;-78
2024/01/04 06:48:03;;;;;;;3.23;1.13;;;;;;;9.00;100.00;99255.06;5054974;28;20546;-77
2024/01/04 06:50:29;;;;;;;3.83;1.00;;;;;;;8.98;100.00;99254.25;5048742;28;20194;-78
2024/01/04 06:52:55;;;;;;;3.13;1.20;;;;;;;9.00;100.00;99262.81;5050070;28;20202;-77
2024/01/04 06:55:20;;;;;;;4.03;1.30;;;;;;;8.98;100.00;99259.44;5052125;28;20293;-77
2024/01/04 06:57:45;;;;;;;6.23;1.53;;;;;;;8.96;100.00;99268.91;5052428;28;20190;-77
2024/01/04 07:00:11;;;;;;;4.50;1.37;;;;;;;8.98;100.00;99267.16;5048007;28;20477;-78
2024/01/04 07:02:37;;;;;;;3.17;1.30;;;;;;;8.94;100.00;99281.84;5050973;28;20228;-78
2024/01/04 07:05:06;;;;;;;3.90;1.60;;;;;;;9.03;100.00;99292.88;5052974;28;20281;-79
2024/01/04 07:07:32;;;;;;;3.50;1.47;;;;;;;9.03;100.00;99300.63;5049136;28;20182;-77
2024/01/04 07:09:57;;;;;;;2.93;1.10;;;;;;;8.98;100.00;99305.88;5047906;28;20244;-77
2024/01/04 07:12:24;;;;;;;3.10;1.27;;;;;;;8.98;100.00;99314.47;5050952;28;20187;-78
2024/01/04 07:14:49;;;;;;;4.53;1.60;;;;;;;8.98;100.00;99311.03;5052900;28;20206;-77
2024/01/04 07:17:16;;;;;;;3.93;1.20;;;;;;;8.95;100.00;99324.00;5052319;28;20177;-77
2024/01/04 07:19:42;;;;;;;5.13;1.90;;;;;;;8.94;100.00;99330.03;5055563;28;20187;-77
2024/01/04 07:22:08;;;;;;;5.67;1.87;;;;;;;8.96;100.00;99325.69;5061272;28;20221;-76
2024/01/04 07:24:33;;;;;;;3.23;2.10;;;;;;;8.97;100.00;99332.56;5050261;28;20210;-76
2024/01/04 07:26:59;;;;;;;5.90;2.00;;;;;;;8.97;100.00;99343.72;5055368;28;20985;-79
2024/01/04 07:29:24;;;;;;;4.50;1.60;;;;;;;8.95;100.00;99345.47;5054379;28;20210;-77
2024/01/04 07:31:50;;;;;;;5.40;1.90;;;;;;;8.92;100.00;99342.97;5051198;28;20198;-77
2024/01/04 07:34:15;;;;;;;4.93;1.60;;;;;;;8.95;100.00;99347.22;5061015;28;20241;-77
2024/01/04 07:36:40;;;;;;;5.90;1.90;;;;;;;8.97;100.00;99353.19;5057111;28;20190;-77
2024/01/04 07:39:06;;;;;;;6.33;1.80;;;;;;;8.95;100.00;99348.06;5052804;28;20550;-78
2024/01/04 07:41:31;;;;;;;5.67;1.80;;;;;;;8.96;100.00;99351.50;5062479;28;20205;-78
2024/01/04 07:43:57;;;;;;;8.13;2.37;;;;;;;8.94;100.00;99356.66;5065873;28;20205;-78
2024/01/04 07:46:25;;;;;;;4.60;1.50;;;;;;;8.94;100.00;99358.41;5060353;28;20233;-76
2024/01/04 07:48:51;;;;;;;5.60;1.73;;;;;;;8.94;100.00;99358.41;5058423;28;20186;-77
2024/01/04 07:51:16;;;;;;;4.33;1.83;;;;;;;8.97;100.00;99358.38;5056459;28;20183;-78
2024/01/04 07:53:41;;;;;;;6.33;2.30;;;;;;;9.00;100.00;99363.44;5060177;28;20679;-78
2024/01/04 07:56:07;;;;;;;4.03;1.33;;;;;;;9.00;100.00;99360.88;5062101;28;20624;-77
2024/01/04 07:58:33;;;;;;;4.67;1.70;;;;;;;9.07;100.00;99364.22;5055897;28;20200;-77
2024/01/04 08:00:58;;;;;;;7.60;2.00;;;;;;;9.17;100.00;99370.03;5049644;28;20221;-77
2024/01/04 08:03:23;;;;;;;6.93;1.97;;;;;;;9.15;100.00;99370.09;5059419;28;20759;-77
2024/01/04 08:05:49;;;;;;;7.23;1.80;;;;;;;9.20;100.00;99372.56;5062078;28;20220;-78
2024/01/04 08:08:14;;;;;;;4.73;2.00;;;;;;;9.19;100.00;99370.88;5061416;28;20191;-78
2024/01/04 08:10:39;;;;;;;4.20;2.07;;;;;;;9.24;100.00;99369.06;5058181;28;20665;-78
2024/01/04 08:13:05;;;;;;;5.90;1.87;;;;;;;9.24;100.00;99358.75;5054857;28;20187;-79
2024/01/04 08:15:33;;;;;;;4.87;1.80;;;;;;;9.26;100.00;99367.31;5060236;28;20213;-78
2024/01/04 08:18:00;;;;;;;5.17;1.83;;;;;;;9.28;100.00;99368.16;5059326;28;20396;-76
2024/01/04 08:20:26;;;;;;;4.50;1.30;;;;;;;9.24;100.00;99362.16;5059558;28;20244;-78
2024/01/04 08:22:51;;;;;;;3.77;2.30;;;;;;;9.24;100.00;99361.31;5056871;28;20617;-77
2024/01/04 08:25:17;;;;;;;5.50;1.90;;;;;;;9.17;100.00;99359.72;5057711;28;20198;-78
2024/01/04 08:27:42;;;;;;;5.33;1.97;;;;;;;9.12;100.00;99360.69;5058029;28;20205;-77
2024/01/04 08:30:08;;;;;;;3.77;2.17;;;;;;;9.11;100.00;99352.94;5060532;28;20194;-78
2024/01/04 08:32:33;;;;;;;6.23;2.27;;;;;;;9.14;100.00;99358.06;5059152;28;20186;-78
2024/01/04 08:34:59;;;;;;;6.67;4.47;;;;;;;9.15;100.00;99359.75;5055551;28;22104;-78
2024/01/04 08:37:24;;;;;;;7.13;4.17;;;;;;;9.14;100.00;99342.56;5051626;28;20191;-78
2024/01/04 08:39:49;;;;;;;6.57;5.20;;;;;;;9.13;100.00;99339.16;5057090;28;20286;-79
2024/01/04 08:42:15;;;;;;;7.20;4.50;;;;;;;9.08;100.00;99350.41;5060866;28;20183;-78
2024/01/04 08:44:41;;;;;;;10.47;6.90;;;;;;;9.03;100.00;99352.25;5062135;28;20209;-78
2024/01/04 08:47:06;;;;;;;14.07;9.83;;;;;;;9.02;100.00;99369.44;5052889;28;20182;-77
2024/01/04 08:49:32;;;;;;;16.03;10.07;;;;;;;9.08;100.00;99351.28;5065659;28;20186;-78
2024/01/04 08:51:57;;;;;;;18.17;11.63;;;;;;;9.14;100.00;99363.22;5060380;28;20295;-76
2024/01/04 08:54:23;;;;;;;12.00;8.17;;;;;;;9.15;100.00;99368.34;5057598;28;20205;-78
2024/01/04 08:56:48;;;;;;;8.30;5.23;;;;;;;9.23;100.00;99364.78;5054659;28;20216;-78
2024/01/04 08:59:13;;;;;;;7.63;5.13;;;;;;;9.26;100.00;99357.81;5051985;28;20195;-78
2024/01/04 09:01:39;;;;;;;8.30;5.47;;;;;;;9.19;100.00;99364.00;5056738;28;20252;-78
2024/01/04 09:04:04;;;;;;;8.63;5.60;;;;;;;9.18;100.00;99361.44;5046949;28;20234;-77
2024/01/04 09:06:31;;;;;;;6.67;3.77;;;;;;;9.13;100.00;99370.13;5055393;28;20183;-77
2024/01/04 09:08:56;;;;;;;7.20;5.20;;;;;;;9.13;100.00;99369.25;5056305;28;20217;-78
2024/01/04 09:11:22;;;;;;;5.47;3.17;;;;;;;9.12;100.00;99386.50;5053118;28;20724;-77
2024/01/04 09:13:47;;;;;;;5.67;4.37;;;;;;;9.04;100.00;99387.50;5060187;28;20616;-78
2024/01/04 09:16:13;;;;;;;3.40;1.40;;;;;;;9.04;100.00;99390.91;5056888;28;20656;-78
2024/01/04 09:18:38;;;;;;;4.07;1.80;;;;;;;8.96;100.00;99400.53;5048497;28;20216;-78
2024/01/04 09:21:04;;;;;;;4.37;1.80;;;;;;;8.95;100.00;99402.25;5049292;28;20298;-76
2024/01/04 09:23:29;;;;;;;5.17;2.50;;;;;;;8.88;100.00;99425.59;5052431;28;20517;-77
2024/01/04 09:25:54;;;;;;;19.27;13.50;;;;;;;8.81;100.00;99425.69;5054179;28;20205;-78
2024/01/04 09:28:22;;;;;;;8.47;3.73;;;;;;;8.81;100.00;99428.28;5048154;28;20655;-79
2024/01/04 09:30:47;;;;;;;7.57;3.80;;;;;;;8.79;100.00;99419.72;5049185;28;20183;-77
2024/01/04 09:33:15;;;;;;;9.40;6.20;;;;;;;8.78;100.00;99427.47;5046408;28;20180;-78
2024/01/04 09:35:41;;;;;;;7.30;5.20;;;;;;;8.79;100.00;99431.75;5061149;28;20202;-77
2024/01/04 09:38:06;;;;;;;7.63;2.97;;;;;;;8.78;100.00;99440.34;5051467;28;20181;-78
2024/01/04 09:40:31;;;;;;;6.23;2.30;;;;;;;8.75;100.00;99440.44;5048091;28;20214;-78
2024/01/04 09:42:57;;;;;;;6.57;2.87;;;;;;;8.73;100.00;99447.34;5049599;28;20183;-77
2024/01/04 09:45:22;;;;;;;4.53;2.07;;;;;;;8.71;100.00;99449.91;5060773;28;20263;-78
2024/01/04 09:47:53;;;;;;;5.03;2.03;;;;;;;8.76;100.00;99455.03;5049407;28;20706;-77
2024/01/04 09:50:20;;;;;;;5.27;1.90;;;;;;;8.72;100.00;99469.69;5050150;28;20179;-77
2024/01/04 09:52:46;;;;;;;5.70;1.83;;;;;;;8.74;100.00;99461.94;5054719;28;20742;-78
2024/01/04 09:55:16;;;;;;;6.30;1.97;;;;;;;8.72;100.00;99469.69;5054711;28;20217;-77
2024/01/04 09:57:41;;;;;;;4.33;1.97;;;;;;;8.71;100.00;99470.56;5054692;28;20268;-77
2024/01/04 10:00:09;;;;;;;3.43;1.77;;;;;;;8.67;100.00;99482.66;5055074;28;20327;-78
2024/01/04 10:02:41;;;;;;;5.63;1.77;;;;;;;8.70;100.00;99484.31;5049352;28;20193;-78
2024/01/04 10:05:12;;;;;;;4.30;1.53;;;;;;;8.66;100.00;99488.69;5053586;28;20625;-77
2024/01/04 10:07:43;;;;;;;4.30;1.33;;;;;;;8.62;100.00;99497.31;5058281;28;20182;-78
2024/01/04 10:10:18;;;;;;;3.13;1.40;;;;;;;8.58;100.00;99492.25;5056075;28;20202;-77
2024/01/04 10:12:44;;;;;;;4.17;1.30;;;;;;;8.64;100.00;99508.47;5052012;28;20597;-77
2024/01/04 10:15:11;;;;;;;3.57;1.47;;;;;;;8.61;100.00;99499.94;5046364;28;20240;-77
2024/01/04 10:17:39;;;;;;;4.33;1.30;;;;;;;8.61;100.00;99516.28;5043518;28;20190;-78
2024/01/04 10:20:05;;;;;;;5.53;1.60;;;;;;;8.61;100.00;99513.69;5047437;28;20222;-79
2024/01/04 10:22:30;;;;;;;2.90;1.20;;;;;;;8.74;100.00;99505.78;5046584;28;20729;-78
2024/01/04 10:25:09;;;;;;;2.90;1.10;;;;;;;8.87;100.00;99519.34;5057064;28;20200;-77
2024/01/04 10:27:34;;;;;;;2.47;1.20;;;;;;;8.97;100.00;99508.88;5055625;28;20232;-78
2024/01/04 10:30:05;;;;;;;4.30;1.53;;;;;;;9.08;100.00;99521.63;5055215;28;20214;-77
2024/01/04 10:32:30;;;;;;;6.60;1.50;;;;;;;9.19;100.00;99516.31;5050989;28;20189;-78
2024/01/04 10:35:04;;;;;;;4.27;1.30;;;;;;;9.28;100.00;99528.22;5058250;28;20944;-78
2024/01/04 10:37:29;;;;;;;3.87;1.20;;;;;;;9.38;100.00;99518.56;5054720;28;20182;-78
2024/01/04 10:39:57;;;;;;;4.27;1.37;;;;;;;9.43;100.00;99520.22;5055950;28;20815;-78
2024/01/04 10:42:23;;;;;;;3.57;1.20;;;;;;;9.41;100.00;99528.84;5055176;28;20187;-78
2024/01/04 10:44:52;;;;;;;5.70;1.20;;;;;;;9.34;100.00;99525.53;5055498;28;20201;-78
2024/01/04 10:47:18;;;;;;;4.27;1.30;;;;;;;9.30;100.00;99529.88;5050502;28;20483;-78
2024/01/04 10:49:47;;;;;;;4.30;1.43;;;;;;;9.28;100.00;99525.63;5050048;28;20725;-77
2024/01/04 10:52:17;;;;;;;3.60;1.60;;;;;;;9.37;100.00;99535.81;5052585;28;20284;-77
2024/01/04 10:54:43;;;;;;;4.20;1.73;;;;;;;9.38;100.00;99534.06;5050734;28;20679;-77
2024/01/04 10:57:10;;;;;;;5.13;1.60;;;;;;;9.36;100.00;99536.69;5049802;28;20178;-78
2024/01/04 10:59:36;;;;;;;4.50;1.20;;;;;;;9.41;100.00;99532.31;5049669;28;20183;-78
2024/01/04 11:02:02;;;;;;;3.67;1.60;;;;;;;9.46;100.00;99535.66;5050685;28;20178;-78
2024/01/04 11:04:29;;;;;;;4.67;1.53;;;;;;;9.61;100.00;99528.50;5051971;28;20213;-79
2024/01/04 11:06:56;;;;;;;2.77;1.20;;;;;;;9.69;100.00;99529.25;5053542;28;20201;-79
2024/01/04 11:09:25;;;;;;;5.07;1.87;;;;;;;9.82;100.00;99511.81;5051680;28;20195;-77
2024/01/04 11:11:53;;;;;;;4.60;1.40;;;;;;;9.95;100.00;99509.81;5048320;28;20295;-77
2024/01/04 11:14:22;;;;;;;2.17;1.20;;;;;;;10.02;100.00;99524.34;5055402;28;21957;-77
2024/01/04 11:17:06;;;;;;;2.20;1.20;;;;;;;10.14;100.00;99527.56;5053898;28;20202;-78
2024/01/04 11:20:00;;;;;;;3.33;1.40;;;;;;;10.20;100.00;99530.88;5053159;28;20206;-77
2024/01/04 11:22:50;;;;;;;4.27;1.77;;;;;;;10.20;100.00;99525.72;5059640;28;20201;-78
2024/01/04 11:25:44;;;;;;;3.97;1.57;;;;;;;10.11;100.00;99525.91;5054384;28;20226;-78
2024/01/04 11:28:11;;;;;;;4.20;1.67;;;;;;;10.05;100.00;99528.59;5055319;28;20182;-76